Time;durP1;ratioP1;P1;durP2;ratioP2;P2;SDS_P1;SDS_P2;PMS_P1;PMS_P2;Temp;Humidity;BMP_temperature;BMP_pressure;BME280_temperature;BME280_humidity;BME280_pressure;Samples;Min_cycle;Max_cycle;Signal;HPM_P1;HPM_P2
2023/05/28 00:03:42;;;;;;;7.63;4.17;;;15.50;84.90;;;;;;10579440;28;20216;-71
2023/05/28 00:08:43;;;;;;;6.20;4.10;;;15.30;84.20;;;;;;10582423;28;20220;-71
2023/05/28 00:13:43;;;;;;;5.70;3.90;;;15.30;83.90;;;;;;10593076;28;20277;-71
2023/05/28 00:18:44;;;;;;;8.33;3.90;;;15.30;83.80;;;;;;10556115;28;20225;-72
2023/05/28 00:23:45;;;;;;;11.57;4.40;;;15.20;83.40;;;;;;10594340;28;20316;-71
2023/05/28 00:28:45;;;;;;;8.47;4.07;;;15.20;83.40;;;;;;10589121;28;20217;-71
2023/05/28 00:33:49;;;;;;;7.23;4.10;;;15.10;83.20;;;;;;10584522;28;20225;-71
2023/05/28 00:38:49;;;;;;;9.33;4.43;;;15.10;83.20;;;;;;10594428;28;20209;-72
2023/05/28 00:43:51;;;;;;;11.00;7.33;;;15.00;83.30;;;;;;10594803;28;20219;-70
2023/05/28 00:48:52;;;;;;;9.77;4.93;;;14.90;83.70;;;;;;10572648;28;20595;-71
2023/05/28 00:53:53;;;;;;;9.43;4.07;;;14.90;83.60;;;;;;10576954;28;20217;-71
2023/05/28 00:58:55;;;;;;;9.47;4.27;;;14.90;84.80;;;;;;10592118;27;20217;-72
2023/05/28 01:03:55;;;;;;;8.73;4.30;;;14.80;85.50;;;;;;10603105;27;20244;-74
2023/05/28 01:08:56;;;;;;;8.37;3.90;;;14.70;86.10;;;;;;10598324;27;20218;-74
2023/05/28 01:14:01;;;;;;;7.47;4.00;;;14.60;85.60;;;;;;10584169;27;20286;-74
2023/05/28 01:19:08;;;;;;;6.77;3.90;;;14.60;85.80;;;;;;10575738;27;20248;-73
2023/05/28 01:24:10;;;;;;;10.17;4.53;;;14.60;85.30;;;;;;10594759;27;20684;-73
2023/05/28 01:29:18;;;;;;;7.70;4.10;;;14.50;85.60;;;;;;10606404;27;20213;-73
2023/05/28 01:34:19;;;;;;;8.47;4.17;;;14.40;86.30;;;;;;10584459;27;20245;-73
2023/05/28 01:39:22;;;;;;;6.90;4.27;;;14.40;87.20;;;;;;10603130;27;20256;-73
2023/05/28 01:44:24;;;;;;;7.27;4.27;;;14.20;88.30;;;;;;10584038;27;20220;-73
2023/05/28 01:49:24;;;;;;;8.83;4.20;;;14.10;88.80;;;;;;10589153;27;20220;-73
2023/05/28 01:54:25;;;;;;;8.37;4.23;;;14.00;90.00;;;;;;10596089;27;20654;-73
2023/05/28 01:59:26;;;;;;;6.30;3.67;;;13.80;90.20;;;;;;10603737;27;20208;-74
2023/05/28 02:04:26;;;;;;;5.80;4.10;;;13.70;90.50;;;;;;10577578;27;20222;-74
2023/05/28 02:09:30;;;;;;;7.50;4.40;;;13.60;91.00;;;;;;10581430;27;20579;-73
2023/05/28 02:14:31;;;;;;;7.13;4.47;;;13.50;91.40;;;;;;10581677;27;20244;-75
2023/05/28 02:19:32;;;;;;;7.30;4.10;;;13.40;91.70;;;;;;10599195;27;20241;-73
2023/05/28 02:24:33;;;;;;;5.53;3.90;;;13.40;91.70;;;;;;10598235;27;20218;-74
2023/05/28 02:29:34;;;;;;;8.07;4.07;;;13.30;92.10;;;;;;10580539;27;20621;-73
2023/05/28 02:34:34;;;;;;;10.97;4.10;;;13.20;92.60;;;;;;10598383;27;20728;-73
2023/05/28 02:39:35;;;;;;;5.97;4.00;;;13.10;93.20;;;;;;10594715;27;20228;-73
2023/05/28 02:44:35;;;;;;;8.50;4.23;;;13.00;93.50;;;;;;10592996;27;20281;-74
2023/05/28 02:49:36;;;;;;;8.40;4.03;;;13.20;93.50;;;;;;10595529;27;20691;-73
2023/05/28 02:54:37;;;;;;;7.30;4.17;;;13.10;93.70;;;;;;10596423;27;20775;-73
2023/05/28 02:59:40;;;;;;;8.60;4.13;;;13.10;93.70;;;;;;10590858;27;20714;-74
2023/05/28 03:04:41;;;;;;;7.90;4.30;;;13.10;93.90;;;;;;10577604;27;20224;-74
2023/05/28 03:09:41;;;;;;;7.53;3.83;;;13.10;94.00;;;;;;10579791;27;20618;-74
2023/05/28 03:14:42;;;;;;;7.73;4.30;;;13.00;94.20;;;;;;10576364;27;20229;-72
2023/05/28 03:19:43;;;;;;;8.73;4.37;;;13.00;94.60;;;;;;10595527;27;20217;-74
2023/05/28 03:24:43;;;;;;;8.23;4.00;;;12.90;94.90;;;;;;10595085;27;20312;-74
2023/05/28 03:29:44;;;;;;;9.87;4.80;;;12.80;95.60;;;;;;10574760;27;20214;-74
2023/05/28 03:34:44;;;;;;;10.83;4.90;;;12.70;96.10;;;;;;10601874;27;20215;-74
2023/05/28 03:39:45;;;;;;;12.17;4.47;;;12.60;96.80;;;;;;10594185;27;20263;-74
2023/05/28 03:44:45;;;;;;;6.57;4.10;;;12.70;97.10;;;;;;10596275;27;20228;-74
2023/05/28 03:49:46;;;;;;;9.13;4.30;;;12.70;97.40;;;;;;10593715;27;20238;-73
2023/05/28 03:54:47;;;;;;;9.00;4.77;;;12.70;97.60;;;;;;10602502;28;20220;-73
2023/05/28 03:59:47;;;;;;;10.30;4.67;;;12.80;97.50;;;;;;10600660;28;20206;-73
2023/05/28 04:04:51;;;;;;;5.93;4.57;;;12.90;97.50;;;;;;10591020;28;20224;-73
2023/05/28 04:09:55;;;;;;;7.80;4.60;;;13.10;97.30;;;;;;10575768;28;20217;-74
2023/05/28 04:14:56;;;;;;;7.33;4.17;;;13.20;97.00;;;;;;10599863;28;20293;-73
2023/05/28 04:19:57;;;;;;;12.10;4.97;;;13.30;96.80;;;;;;10585687;28;20309;-74
2023/05/28 04:24:57;;;;;;;9.20;4.47;;;13.40;96.90;;;;;;10593946;28;20296;-73
2023/05/28 04:29:58;;;;;;;7.83;4.67;;;13.40;96.80;;;;;;10588916;28;20213;-73
2023/05/28 04:35:03;;;;;;;5.80;3.87;;;13.50;96.50;;;;;;10602294;27;20581;-73
2023/05/28 04:40:05;;;;;;;9.53;4.53;;;13.50;96.50;;;;;;10594650;27;20205;-73
2023/05/28 04:45:09;;;;;;;8.43;5.43;;;14.10;95.90;;;;;;10605657;27;20608;-72
2023/05/28 04:50:10;;;;;;;11.33;5.13;;;14.40;94.40;;;;;;10596928;27;20210;-74
2023/05/28 04:55:14;;;;;;;11.63;6.30;;;14.30;94.70;;;;;;10604840;27;20236;-74
2023/05/28 05:00:15;;;;;;;10.10;6.03;;;14.70;94.40;;;;;;10605090;27;20218;-74
2023/05/28 05:05:16;;;;;;;7.93;4.80;;;16.50;91.20;;;;;;10596811;27;20182;-74
2023/05/28 05:10:16;;;;;;;8.37;4.10;;;17.80;86.60;;;;;;10596211;27;20264;-74
2023/05/28 05:15:17;;;;;;;8.87;4.33;;;17.40;84.70;;;;;;10603116;27;20295;-74
2023/05/28 05:20:18;;;;;;;11.80;4.20;;;16.20;88.80;;;;;;10585294;27;20219;-73
2023/05/28 05:25:18;;;;;;;9.40;4.30;;;16.10;90.50;;;;;;10604241;27;20271;-74
2023/05/28 05:30:19;;;;;;;7.20;3.90;;;17.10;87.70;;;;;;10584039;27;20698;-74
2023/05/28 05:35:20;;;;;;;7.77;4.10;;;18.90;80.80;;;;;;10604203;27;20197;-75
2023/05/28 05:40:20;;;;;;;8.30;4.07;;;20.00;75.20;;;;;;10577796;27;20211;-73
2023/05/28 05:45:21;;;;;;;9.10;4.50;;;20.80;71.60;;;;;;10600111;27;20648;-74
2023/05/28 05:50:22;;;;;;;8.50;3.70;;;21.20;68.30;;;;;;10584760;27;20223;-74
2023/05/28 05:55:22;;;;;;;9.30;4.23;;;21.70;67.10;;;;;;10596808;27;20678;-74
2023/05/28 06:00:23;;;;;;;5.33;3.57;;;22.30;64.40;;;;;;10601063;27;20215;-74
2023/05/28 06:05:23;;;;;;;6.53;4.20;;;22.90;62.40;;;;;;10581006;27;20216;-74
2023/05/28 06:10:24;;;;;;;6.90;4.23;;;23.30;60.20;;;;;;10602802;27;20262;-74
2023/05/28 06:15:25;;;;;;;6.57;3.73;;;23.90;59.20;;;;;;10592769;27;20770;-74
2023/05/28 06:20:25;;;;;;;6.33;3.97;;;24.80;57.60;;;;;;10595707;27;20312;-74
2023/05/28 06:25:26;;;;;;;6.47;4.30;;;24.90;57.00;;;;;;10594889;27;20296;-74
2023/05/28 06:30:27;;;;;;;5.93;3.97;;;25.40;55.70;;;;;;10598266;27;20380;-74
2023/05/28 06:35:28;;;;;;;5.90;3.70;;;25.80;55.20;;;;;;10576776;27;20316;-75
2023/05/28 06:40:29;;;;;;;6.70;3.70;;;25.60;54.40;;;;;;10593864;27;20217;-75
2023/05/28 06:45:32;;;;;;;9.27;4.07;;;26.00;53.20;;;;;;10579180;27;20209;-75
2023/05/28 06:50:36;;;;;;;6.50;3.90;;;26.70;52.80;;;;;;10600426;27;20615;-74
2023/05/28 06:55:36;;;;;;;6.93;3.90;;;27.10;50.60;;;;;;10599530;27;20570;-74
2023/05/28 07:00:37;;;;;;;6.77;3.73;;;26.90;50.50;;;;;;10596583;27;20218;-74
2023/05/28 07:05:37;;;;;;;6.97;3.90;;;26.60;50.50;;;;;;10576671;27;20237;-74
2023/05/28 07:10:38;;;;;;;7.53;3.60;;;26.90;50.20;;;;;;10578055;27;20217;-74
2023/05/28 07:15:39;;;;;;;5.57;3.90;;;28.10;50.00;;;;;;10594904;27;20269;-74
2023/05/28 07:20:39;;;;;;;5.60;3.90;;;27.90;48.00;;;;;;10595557;27;20221;-74
2023/05/28 07:25:42;;;;;;;6.20;4.30;;;28.10;47.80;;;;;;10592516;27;20226;-75
2023/05/28 07:30:43;;;;;;;5.57;4.00;;;28.50;47.90;;;;;;10594115;27;20240;-75
2023/05/28 07:35:47;;;;;;;6.33;4.10;;;28.50;46.90;;;;;;10581585;27;20264;-75
2023/05/28 07:40:49;;;;;;;8.90;4.10;;;28.70;45.80;;;;;;10578539;27;20213;-75
2023/05/28 07:45:50;;;;;;;5.73;3.90;;;29.10;45.70;;;;;;10575322;27;20219;-75
2023/05/28 07:50:51;;;;;;;6.10;4.27;;;29.20;45.10;;;;;;10578118;28;20220;-75
2023/05/28 07:55:53;;;;;;;9.23;4.23;;;28.90;45.50;;;;;;10574878;28;20695;-76
2023/05/28 08:00:53;;;;;;;5.27;3.83;;;29.20;45.40;;;;;;10596173;28;20221;-74
2023/05/28 08:05:54;;;;;;;9.03;4.10;;;30.90;43.40;;;;;;10574766;28;20218;-75
2023/05/28 08:10:55;;;;;;;8.03;4.53;;;30.90;42.00;;;;;;10585400;27;20217;-75
2023/05/28 08:15:59;;;;;;;6.27;3.97;;;30.50;42.40;;;;;;10600925;27;20751;-75
2023/05/28 08:21:00;;;;;;;7.03;3.87;;;31.40;42.40;;;;;;10605652;27;20269;-75
2023/05/28 08:26:03;;;;;;;6.70;4.03;;;32.80;39.50;;;;;;10583588;27;20278;-75
2023/05/28 08:31:04;;;;;;;6.63;4.00;;;32.70;39.80;;;;;;10606016;27;20212;-75
2023/05/28 08:36:06;;;;;;;7.30;4.00;;;32.50;39.00;;;;;;10580919;27;20228;-75
2023/05/28 08:41:07;;;;;;;7.03;3.83;;;31.90;38.20;;;;;;10605888;27;20214;-75
2023/05/28 08:46:08;;;;;;;5.20;3.53;;;32.40;39.90;;;;;;10607366;27;20430;-74
2023/05/28 08:51:09;;;;;;;5.93;4.13;;;33.30;38.00;;;;;;10602789;27;20220;-75
2023/05/28 08:56:10;;;;;;;7.33;3.90;;;34.40;37.70;;;;;;10597642;27;20221;-75
2023/05/28 09:01:12;;;;;;;6.40;4.00;;;35.20;35.30;;;;;;10579282;27;20239;-75
2023/05/28 09:06:13;;;;;;;5.23;3.60;;;35.60;34.50;;;;;;10596552;27;20244;-75
2023/05/28 09:11:14;;;;;;;8.87;4.80;;;35.30;34.20;;;;;;10586912;27;20623;-75
2023/05/28 09:16:21;;;;;;;7.57;4.10;;;35.30;34.70;;;;;;10579776;27;20213;-75
2023/05/28 09:21:22;;;;;;;5.93;4.00;;;35.10;34.20;;;;;;10585116;27;20308;-74
2023/05/28 09:26:24;;;;;;;5.53;3.90;;;35.40;34.70;;;;;;10586577;27;20318;-76
2023/05/28 09:31:32;;;;;;;6.93;4.17;;;36.40;32.60;;;;;;10599799;27;20210;-75
2023/05/28 09:36:36;;;;;;;6.67;4.07;;;36.90;31.20;;;;;;10601766;27;20222;-75
2023/05/28 09:41:43;;;;;;;8.40;4.27;;;36.30;31.50;;;;;;10583518;27;20218;-75
2023/05/28 09:46:46;;;;;;;11.23;4.80;;;35.40;30.50;;;;;;10603908;27;20226;-75
2023/05/28 09:51:51;;;;;;;9.10;4.43;;;35.50;32.70;;;;;;10601592;27;20213;-75
2023/05/28 09:56:57;;;;;;;5.03;3.67;;;35.30;31.90;;;;;;10587263;27;20217;-74
2023/05/28 10:02:25;;;;;;;6.97;4.20;;;35.40;32.50;;;;;;10604529;27;20214;-75
2023/05/28 10:07:28;;;;;;;6.57;3.97;;;35.50;33.00;;;;;;10597877;27;20233;-75
2023/05/28 10:12:30;;;;;;;6.33;3.80;;;35.30;32.40;;;;;;10601260;27;20213;-75
2023/05/28 10:17:35;;;;;;;5.10;3.53;;;35.50;32.10;;;;;;10600174;27;20210;-76
2023/05/28 10:22:40;;;;;;;6.93;3.83;;;36.80;32.00;;;;;;10600017;27;20230;-74
2023/05/28 10:27:45;;;;;;;7.30;4.10;;;37.10;28.80;;;;;;10599731;27;20217;-74
2023/05/28 10:32:46;;;;;;;6.30;4.10;;;38.30;29.40;;;;;;10582463;27;20206;-75
2023/05/28 10:37:47;;;;;;;9.07;4.27;;;38.40;28.20;;;;;;10590445;27;20262;-75
2023/05/28 10:42:47;;;;;;;6.07;4.33;;;36.20;29.90;;;;;;10603355;27;20256;-75
2023/05/28 10:47:53;;;;;;;6.30;4.83;;;38.30;29.40;;;;;;10596919;27;20256;-75
2023/05/28 10:53:12;;;;;;;6.47;3.97;;;38.30;28.20;;;;;;10585680;27;20221;-75
2023/05/28 10:58:21;;;;;;;4.93;3.70;;;37.60;29.10;;;;;;10574664;27;20213;-75
2023/05/28 11:03:58;;;;;;;4.77;3.70;;;39.60;28.10;;;;;;10580779;27;20241;-75
2023/05/28 11:09:00;;;;;;;8.47;4.70;;;39.20;27.20;;;;;;10498531;27;20213;-75
2023/05/28 11:14:01;;;;;;;6.90;4.00;;;40.20;26.60;;;;;;10557205;27;20224;-75
2023/05/28 11:19:04;;;;;;;5.90;3.77;;;37.90;27.60;;;;;;10591621;27;20222;-75
2023/05/28 11:24:05;;;;;;;7.33;4.03;;;36.80;29.30;;;;;;10580233;27;20260;-76
2023/05/28 11:29:06;;;;;;;5.87;4.17;;;37.60;28.60;;;;;;10604449;27;20221;-75
2023/05/28 11:34:08;;;;;;;7.10;4.60;;;39.20;27.30;;;;;;10596513;27;20314;-75
2023/05/28 11:39:09;;;;;;;7.93;4.13;;;36.50;28.70;;;;;;10599772;27;20210;-76
2023/05/28 11:44:21;;;;;;;6.97;4.60;;;33.20;31.90;;;;;;10594044;27;20320;-75
2023/05/28 11:49:22;;;;;;;11.23;5.77;;;31.40;35.00;;;;;;10581098;28;20221;-74
2023/05/28 11:54:22;;;;;;;7.70;4.70;;;30.60;36.80;;;;;;10556173;28;20263;-74
2023/05/28 11:59:27;;;;;;;8.37;4.90;;;29.10;37.20;;;;;;10580845;28;20262;-74
2023/05/28 12:04:27;;;;;;;8.20;4.53;;;28.90;38.20;;;;;;10578859;28;20274;-75
2023/05/28 12:09:28;;;;;;;7.93;4.47;;;28.40;38.70;;;;;;10604326;28;20247;-75
2023/05/28 12:14:39;;;;;;;7.30;4.60;;;27.30;40.00;;;;;;10571716;28;20268;-74
2023/05/28 12:19:40;;;;;;;7.77;4.93;;;27.30;41.10;;;;;;10593582;28;20692;-74
2023/05/28 12:24:53;;;;;;;8.80;4.93;;;27.40;40.20;;;;;;10589152;28;20224;-73
2023/05/28 12:29:54;;;;;;;8.23;4.90;;;27.80;40.30;;;;;;10597800;28;20227;-74
2023/05/28 12:34:56;;;;;;;7.50;4.63;;;27.30;40.80;;;;;;10595902;28;20723;-74
2023/05/28 12:39:56;;;;;;;7.43;4.67;;;26.90;40.90;;;;;;10597925;28;20221;-75
2023/05/28 12:44:57;;;;;;;6.23;4.70;;;26.90;41.70;;;;;;10596165;28;20581;-74
2023/05/28 12:49:57;;;;;;;6.90;4.80;;;26.80;41.10;;;;;;10599374;28;20231;-72
2023/05/28 12:54:58;;;;;;;11.17;7.57;;;26.90;40.80;;;;;;10598823;27;20255;-74
2023/05/28 12:59:59;;;;;;;6.53;4.90;;;27.00;40.70;;;;;;10598669;27;20219;-75
2023/05/28 13:05:00;;;;;;;6.57;4.50;;;27.20;41.30;;;;;;10603129;27;20268;-74
2023/05/28 13:10:00;;;;;;;10.73;4.97;;;27.10;41.10;;;;;;10598320;27;20256;-73
2023/05/28 13:15:01;;;;;;;7.77;5.27;;;27.00;41.40;;;;;;10584777;27;20217;-74
2023/05/28 13:20:06;;;;;;;6.87;5.10;;;26.90;41.20;;;;;;10597202;27;20224;-74
2023/05/28 13:25:08;;;;;;;7.70;5.00;;;26.90;41.90;;;;;;10602131;27;20233;-74
2023/05/28 13:30:09;;;;;;;8.77;5.00;;;26.90;42.10;;;;;;10604724;27;20193;-74
2023/05/28 13:35:12;;;;;;;6.23;4.57;;;27.20;42.00;;;;;;10599041;27;20546;-74
2023/05/28 13:40:13;;;;;;;7.10;4.97;;;26.70;42.00;;;;;;10598704;27;20188;-74
2023/05/28 13:45:14;;;;;;;8.50;5.07;;;26.70;42.80;;;;;;10594845;27;20687;-74
2023/05/28 13:50:15;;;;;;;7.13;4.97;;;26.90;42.70;;;;;;10584909;27;20191;-74
2023/05/28 13:55:15;;;;;;;6.43;4.93;;;26.70;41.90;;;;;;10578117;27;20534;-74
2023/05/28 14:00:20;;;;;;;8.80;4.67;;;26.70;42.20;;;;;;10602912;27;20192;-74
2023/05/28 14:05:21;;;;;;;7.60;4.97;;;26.80;42.80;;;;;;10598078;27;20296;-75
2023/05/28 14:10:21;;;;;;;7.23;4.43;;;26.80;42.90;;;;;;10583261;27;20263;-74
2023/05/28 14:15:22;;;;;;;7.77;4.53;;;26.80;43.70;;;;;;10609941;27;20218;-74
2023/05/28 14:20:23;;;;;;;8.60;4.83;;;26.70;43.00;;;;;;10573632;27;20204;-74
2023/05/28 14:25:23;;;;;;;8.00;4.80;;;26.50;43.50;;;;;;10601904;27;20220;-73
2023/05/28 14:30:24;;;;;;;8.87;5.00;;;26.40;44.70;;;;;;10598813;27;20695;-74
2023/05/28 14:35:25;;;;;;;6.40;4.43;;;26.30;45.10;;;;;;10590097;27;20224;-74
2023/05/28 14:40:25;;;;;;;7.10;4.50;;;26.20;44.60;;;;;;10593697;27;20299;-74
2023/05/28 14:45:26;;;;;;;6.97;4.87;;;26.30;45.90;;;;;;10586044;27;20219;-74
2023/05/28 14:50:26;;;;;;;11.70;4.73;;;26.40;45.50;;;;;;10581027;27;20227;-74
2023/05/28 14:55:27;;;;;;;8.33;4.80;;;26.40;45.80;;;;;;10595421;27;20277;-74
2023/05/28 15:00:27;;;;;;;8.00;4.93;;;26.10;46.00;;;;;;10600126;27;20268;-74
2023/05/28 15:05:28;;;;;;;7.20;4.73;;;26.20;45.70;;;;;;10576855;27;20242;-74
2023/05/28 15:10:29;;;;;;;6.37;4.53;;;26.40;45.50;;;;;;10598466;27;20211;-74
2023/05/28 15:15:29;;;;;;;7.90;4.60;;;26.50;45.20;;;;;;10601041;27;20223;-74
2023/05/28 15:20:30;;;;;;;8.27;4.90;;;26.30;45.70;;;;;;10575828;27;20222;-74
2023/05/28 15:25:31;;;;;;;7.53;4.93;;;26.10;46.00;;;;;;10597205;27;20731;-73
2023/05/28 15:30:31;;;;;;;7.33;4.53;;;26.20;46.10;;;;;;10584357;27;20229;-73
2023/05/28 15:35:32;;;;;;;7.37;4.33;;;26.30;45.40;;;;;;10581528;27;20597;-74
2023/05/28 15:40:33;;;;;;;7.53;4.93;;;26.20;45.00;;;;;;10596635;27;20222;-73
2023/05/28 15:45:34;;;;;;;10.10;4.93;;;26.10;45.80;;;;;;10576691;27;20225;-75
2023/05/28 15:50:35;;;;;;;7.80;4.83;;;26.10;46.40;;;;;;10595992;27;20231;-74
2023/05/28 15:55:36;;;;;;;7.43;4.63;;;26.00;45.60;;;;;;10590989;27;20288;-74
2023/05/28 16:00:37;;;;;;;9.17;4.70;;;25.80;46.40;;;;;;10594356;28;20310;-74
2023/05/28 16:05:39;;;;;;;7.00;4.60;;;25.80;46.70;;;;;;10595864;28;20228;-75
2023/05/28 16:10:40;;;;;;;10.27;5.03;;;25.80;46.00;;;;;;10578574;28;20341;-74
2023/05/28 16:15:41;;;;;;;6.00;4.63;;;25.60;46.70;;;;;;10595590;28;20315;-74
2023/05/28 16:20:41;;;;;;;7.10;4.90;;;25.60;47.40;;;;;;10589643;28;20332;-74
2023/05/28 16:25:42;;;;;;;6.53;4.33;;;25.40;48.40;;;;;;10597746;28;20382;-73
2023/05/28 16:30:43;;;;;;;8.00;4.50;;;25.40;47.40;;;;;;10595421;27;20210;-73
2023/05/28 16:35:45;;;;;;;5.50;4.40;;;25.40;48.40;;;;;;10587532;27;20218;-74
2023/05/28 16:40:46;;;;;;;6.63;4.07;;;25.40;48.80;;;;;;10589822;27;20213;-74
2023/05/28 16:45:47;;;;;;;6.83;4.30;;;25.30;47.90;;;;;;10610624;27;20227;-74
2023/05/28 16:50:48;;;;;;;6.60;4.40;;;25.20;48.70;;;;;;10598953;27;20586;-74
2023/05/28 16:55:50;;;;;;;7.20;4.40;;;25.10;49.50;;;;;;10578704;27;20223;-74
2023/05/28 17:00:52;;;;;;;8.13;4.60;;;25.00;49.30;;;;;;10603177;27;20210;-74
2023/05/28 17:05:52;;;;;;;6.57;4.23;;;25.00;49.60;;;;;;10600688;27;20213;-73
2023/05/28 17:10:53;;;;;;;6.23;4.33;;;25.00;49.40;;;;;;10603071;27;20240;-73
2023/05/28 17:15:53;;;;;;;8.77;5.00;;;24.90;49.40;;;;;;10598789;27;20289;-73
2023/05/28 17:20:54;;;;;;;8.87;4.60;;;24.80;49.90;;;;;;10600336;27;20240;-74
2023/05/28 17:25:54;;;;;;;7.40;4.50;;;24.80;49.00;;;;;;10592885;27;20700;-73
2023/05/28 17:30:55;;;;;;;7.20;5.37;;;24.70;49.10;;;;;;10579196;27;20224;-73
2023/05/28 17:35:56;;;;;;;5.63;4.73;;;24.60;49.20;;;;;;10590267;27;20712;-74
2023/05/28 17:40:57;;;;;;;9.33;4.77;;;24.60;49.90;;;;;;10601628;27;20215;-74
2023/05/28 17:46:00;;;;;;;7.13;4.33;;;24.50;50.40;;;;;;10596434;27;20282;-74
2023/05/28 17:51:00;;;;;;;6.47;4.57;;;24.40;50.20;;;;;;10602066;27;20209;-74
2023/05/28 17:56:01;;;;;;;6.80;4.30;;;24.30;50.30;;;;;;10580144;27;20209;-74
2023/05/28 18:01:02;;;;;;;7.67;4.10;;;24.20;50.80;;;;;;10578225;27;20262;-74
2023/05/28 18:06:03;;;;;;;6.30;4.13;;;24.20;50.70;;;;;;10582326;27;20260;-74
2023/05/28 18:11:04;;;;;;;6.10;3.70;;;24.00;50.30;;;;;;10602331;27;20312;-75
2023/05/28 18:16:05;;;;;;;7.20;4.27;;;23.90;50.70;;;;;;10598389;27;20312;-73
2023/05/28 18:21:06;;;;;;;7.53;3.70;;;23.80;49.90;;;;;;10601884;27;20303;-73
2023/05/28 18:26:10;;;;;;;6.90;3.90;;;23.70;49.60;;;;;;10599294;27;20225;-73
2023/05/28 18:31:11;;;;;;;6.47;4.10;;;23.60;49.10;;;;;;10601309;27;20213;-74
2023/05/28 18:36:11;;;;;;;6.07;3.80;;;23.40;49.30;;;;;;10599398;27;20759;-74
2023/05/28 18:41:12;;;;;;;6.70;4.00;;;23.30;50.00;;;;;;10575365;27;20259;-73
2023/05/28 18:46:14;;;;;;;4.97;3.60;;;23.20;50.60;;;;;;10600904;27;20727;-73
2023/05/28 18:51:17;;;;;;;6.73;3.77;;;23.00;51.20;;;;;;10592485;27;20213;-74
2023/05/28 18:56:17;;;;;;;5.47;3.80;;;22.90;51.60;;;;;;10591684;27;20210;-74
2023/05/28 19:01:20;;;;;;;6.90;3.60;;;22.80;52.00;;;;;;10599152;27;20641;-74
2023/05/28 19:06:21;;;;;;;6.67;3.70;;;22.60;52.20;;;;;;10592396;27;20230;-74
2023/05/28 19:11:21;;;;;;;8.23;3.73;;;22.50;52.60;;;;;;10598784;27;20217;-74
2023/05/28 19:16:24;;;;;;;6.67;3.60;;;22.30;52.80;;;;;;10591738;27;20843;-74
2023/05/28 19:21:25;;;;;;;6.53;3.30;;;22.20;53.40;;;;;;10579884;27;20229;-74
2023/05/28 19:26:26;;;;;;;5.30;2.80;;;22.00;53.60;;;;;;10600218;27;20225;-74
2023/05/28 19:31:27;;;;;;;4.43;3.33;;;21.90;52.40;;;;;;10599577;27;20228;-74
2023/05/28 19:36:29;;;;;;;7.17;3.10;;;21.80;51.50;;;;;;10596249;27;20216;-74
2023/05/28 19:41:30;;;;;;;4.60;3.10;;;21.80;51.80;;;;;;10599167;27;20582;-74
2023/05/28 19:46:31;;;;;;;7.40;3.20;;;21.60;52.20;;;;;;10600421;27;20235;-75
2023/05/28 19:51:31;;;;;;;4.97;3.10;;;21.50;52.80;;;;;;10594270;27;20252;-75
2023/05/28 19:56:32;;;;;;;5.90;2.80;;;21.30;53.20;;;;;;10596048;27;20225;-74
2023/05/28 20:01:33;;;;;;;4.80;2.93;;;21.20;53.80;;;;;;10602593;28;20296;-74
2023/05/28 20:06:33;;;;;;;4.80;3.03;;;21.00;54.00;;;;;;10608413;27;20229;-74
2023/05/28 20:11:34;;;;;;;4.67;2.83;;;20.90;54.00;;;;;;10581233;27;20735;-75
2023/05/28 20:16:36;;;;;;;4.83;2.80;;;20.80;54.30;;;;;;10602937;27;20217;-75
2023/05/28 20:21:36;;;;;;;3.90;3.00;;;20.70;53.80;;;;;;10598381;27;20309;-74
2023/05/28 20:26:37;;;;;;;5.53;3.30;;;20.80;54.10;;;;;;10586587;27;20265;-74
2023/05/28 20:31:38;;;;;;;2.87;2.40;;;20.70;53.90;;;;;;10599110;27;20289;-73
2023/05/28 20:36:38;;;;;;;6.87;3.60;;;20.60;54.20;;;;;;10597599;27;20244;-73
2023/05/28 20:41:44;;;;;;;4.70;3.17;;;20.60;54.50;;;;;;10598306;27;20254;-73
2023/05/28 20:46:44;;;;;;;5.17;3.13;;;20.50;54.70;;;;;;10601837;27;20225;-73
2023/05/28 20:51:45;;;;;;;4.30;2.73;;;20.50;55.00;;;;;;10590727;27;20224;-74
2023/05/28 20:56:47;;;;;;;5.90;3.10;;;20.30;55.40;;;;;;10605276;27;20214;-75
2023/05/28 21:01:48;;;;;;;4.10;2.93;;;20.20;55.90;;;;;;10601336;27;20236;-74
2023/05/28 21:06:48;;;;;;;5.73;3.37;;;20.10;56.20;;;;;;10580240;27;20313;-74
2023/05/28 21:11:49;;;;;;;5.30;3.30;;;20.00;56.20;;;;;;10596418;27;20628;-74
2023/05/28 21:16:49;;;;;;;4.67;3.10;;;20.00;56.40;;;;;;10604825;27;20310;-74
2023/05/28 21:21:50;;;;;;;5.57;2.93;;;19.90;56.90;;;;;;10600571;27;20222;-74
2023/05/28 21:26:50;;;;;;;6.13;3.30;;;19.90;57.10;;;;;;10601122;27;20230;-73
2023/05/28 21:31:51;;;;;;;6.73;3.13;;;19.80;57.40;;;;;;10605166;27;20250;-72
2023/05/28 21:36:52;;;;;;;6.93;3.20;;;19.80;57.90;;;;;;10600105;27;20309;-73
2023/05/28 21:41:52;;;;;;;4.87;3.27;;;19.60;58.10;;;;;;10608311;27;20209;-74
2023/05/28 21:46:53;;;;;;;8.70;3.43;;;19.60;58.50;;;;;;10576222;27;20317;-73
2023/05/28 21:51:55;;;;;;;8.43;3.53;;;19.50;58.90;;;;;;10597701;27;20218;-74
2023/05/28 21:56:56;;;;;;;5.27;3.47;;;19.40;59.20;;;;;;10598313;27;20225;-74
2023/05/28 22:01:56;;;;;;;4.30;3.17;;;19.40;59.40;;;;;;10599874;27;20345;-74
2023/05/28 22:06:57;;;;;;;6.87;3.10;;;19.30;59.90;;;;;;10592041;27;20225;-75
2023/05/28 22:11:58;;;;;;;5.03;3.13;;;19.10;61.10;;;;;;10603885;27;20687;-74
2023/05/28 22:17:01;;;;;;;5.77;2.90;;;19.00;62.10;;;;;;10595456;27;20224;-74
2023/05/28 22:22:02;;;;;;;5.60;3.50;;;18.80;62.80;;;;;;10597209;27;20591;-75
2023/05/28 22:27:05;;;;;;;4.53;3.13;;;18.70;63.70;;;;;;10606155;27;20224;-74
2023/05/28 22:32:06;;;;;;;7.57;3.57;;;18.50;63.80;;;;;;10602287;27;20219;-74
2023/05/28 22:37:07;;;;;;;3.97;2.90;;;18.40;64.40;;;;;;10592735;27;20320;-75
2023/05/28 22:42:08;;;;;;;7.83;3.40;;;18.30;64.90;;;;;;10602624;27;20625;-74
2023/05/28 22:47:09;;;;;;;5.80;3.23;;;18.20;65.60;;;;;;10600676;27;20213;-74
2023/05/28 22:52:11;;;;;;;6.47;3.33;;;18.10;66.20;;;;;;10581312;27;20218;-75
2023/05/28 22:57:12;;;;;;;5.73;3.40;;;17.90;67.00;;;;;;10590978;27;20700;-74
2023/05/28 23:02:13;;;;;;;4.30;3.03;;;17.80;67.70;;;;;;10573510;27;20582;-74
2023/05/28 23:07:13;;;;;;;6.30;3.33;;;17.70;68.40;;;;;;10582022;27;20217;-74
2023/05/28 23:12:14;;;;;;;3.90;3.20;;;17.60;69.10;;;;;;10591449;27;20313;-74
2023/05/28 23:17:16;;;;;;;6.10;3.23;;;17.40;69.60;;;;;;10580542;27;20228;-74
2023/05/28 23:22:17;;;;;;;6.47;3.60;;;17.30;70.10;;;;;;10592821;27;20799;-74
2023/05/28 23:27:18;;;;;;;5.43;3.67;;;17.30;70.30;;;;;;10580478;27;20505;-74
2023/05/28 23:32:18;;;;;;;8.00;3.23;;;17.20;70.40;;;;;;10581164;27;20221;-74
2023/05/28 23:37:19;;;;;;;5.47;3.43;;;17.20;70.90;;;;;;10599295;27;20224;-74
2023/05/28 23:42:20;;;;;;;7.77;3.63;;;17.20;71.20;;;;;;10598181;27;20734;-74
2023/05/28 23:47:20;;;;;;;7.73;3.43;;;17.20;71.60;;;;;;10604019;27;20718;-74
2023/05/28 23:52:21;;;;;;;6.07;3.73;;;17.00;71.90;;;;;;10592725;27;20278;-73
2023/05/28 23:57:21;;;;;;;6.13;3.73;;;17.00;72.70;;;;;;10593112;27;20629;-73
